Hlavní strana
METAR-TAF:

METAR-TAF

Letiště :

Mezinárodní letiště Subháse Čandry Boseho

Kalkata, Indie

zeměpisná šířka: 22-39N, zeměpisná délka: 088-27E, výška: 4 m

Aktuální stav počasí

Zpráva byla vytvořena před 31 minutami, v 22:30 UTC
Jižní vítr 4 kt
Teplota 30°C
Vlhkost vzduchu 94%
Tlak 997 hPa
Viditelnost: 3200 m
Skoro jasno ve výšce 2000 ft
zákal

METAR: VECC 182230Z 19004KT 3200 HZ FEW020 30/29 Q0997 NOSIG

Čas: 04:31 (23:01 UTC)

Předpověď počasí

Zpráva byla vytvořena před 3 hodinami a 1 minutami, v 20:00 UTC
Předpověď platná od 18 v 21 UTC do 19 v 06 UTC
Jihojihozápadní vítr 8 kt
Viditelnost: 2800 m
Skoro jasno ve výšce 2000 ft
zákal
Změna
od 19 v 03 UTC do 19 v 05 UTC
Viditelnost: 3500 m
zákal

TAF: VECC 182000Z 1821/1906 21008KT 2800 HZ FEW020 BECMG 1903/1905 3500 HZ

Stav a předpovědi počasí z více než 4 000 letišť (zprávy METAR a TAF).

Červené a žluté tečky na mapě představují dostupné meteorologické stanice.

Když kurzor umístíte na tečku, zobrazí se název stanice.

Pak kliknutím zobrazíte stav a předpověď počasí.

Chcete-li změnit mapu, kliknutím na zelené tlačítko se znaménkem +mapu přiblížíte, kliknutím na zelené tlačítko se znaménkem – mapu oddálíte a kliknutím na zelené šipky přejdete na sousední mapy.


METAR-TAF: